createdAt,value
2019-06-20T00:00:50.785Z,96.40
2019-06-20T00:03:20.221Z,97.20
2019-06-20T00:05:49.521Z,97.50
2019-06-20T00:08:18.806Z,97.70
2019-06-20T00:10:49.248Z,98.10
2019-06-20T00:13:18.526Z,98.20
2019-06-20T00:15:47.824Z,97.00
2019-06-20T00:18:17.120Z,96.70
2019-06-20T00:20:46.472Z,97.70
2019-06-20T00:23:15.772Z,97.60
2019-06-20T00:25:45.365Z,96.90
2019-06-20T00:28:14.967Z,97.10
2019-06-20T00:30:44.250Z,96.50
2019-06-20T00:33:13.886Z,96.00
2019-06-20T00:35:43.199Z,96.20
2019-06-20T00:38:12.489Z,95.80
2019-06-20T00:40:41.784Z,95.70
2019-06-20T00:43:17.509Z,95.50
2019-06-20T00:45:42.355Z,95.40
2019-06-20T00:48:11.661Z,96.10
2019-06-20T00:50:40.937Z,96.00
2019-06-20T00:53:10.242Z,96.50
2019-06-20T00:55:39.769Z,96.90
2019-06-20T00:58:09.446Z,97.10
2019-06-20T01:00:38.734Z,96.90
2019-06-20T01:03:08.358Z,96.60
2019-06-20T01:05:37.645Z,96.50
2019-06-20T01:08:06.942Z,95.30
2019-06-20T01:10:36.557Z,95.00
2019-06-20T01:13:05.856Z,95.30
2019-06-20T01:15:35.313Z,95.80
2019-06-20T01:18:04.785Z,96.00
2019-06-20T01:20:34.073Z,95.00
2019-06-20T01:23:03.686Z,94.50
2019-06-20T01:25:38.715Z,94.30
2019-06-20T01:28:08.742Z,93.40
2019-06-20T01:30:38.088Z,93.00
2019-06-20T01:33:07.621Z,93.10
2019-06-20T01:35:36.971Z,93.00
2019-06-20T01:38:06.645Z,93.10
2019-06-20T01:40:35.932Z,93.10
2019-06-20T01:43:06.310Z,92.60
2019-06-20T01:45:35.599Z,92.60
2019-06-20T01:48:04.892Z,92.50
2019-06-20T01:50:34.177Z,92.30
2019-06-20T01:53:03.482Z,93.20
2019-06-20T01:55:32.801Z,93.40
2019-06-20T01:58:03.182Z,93.90
2019-06-20T02:00:35.781Z,93.80
2019-06-20T02:03:06.422Z,94.20
2019-06-20T02:05:35.696Z,94.20
2019-06-20T02:08:05.065Z,94.20
2019-06-20T02:10:34.365Z,94.20
2019-06-20T02:13:04.301Z,94.20
2019-06-20T02:15:33.698Z,94.20
2019-06-20T02:18:03.068Z,94.30
2019-06-20T02:20:47.338Z,94.20
2019-06-20T02:23:16.647Z,93.90
2019-06-20T02:25:46.161Z,94.40
2019-06-20T02:28:16.023Z,94.30
2019-06-20T02:30:45.826Z,94.40
2019-06-20T02:33:15.235Z,94.50
2019-06-20T02:35:44.958Z,94.40
2019-06-20T02:38:14.240Z,94.60
2019-06-20T02:40:44.133Z,94.70
2019-06-20T02:43:13.429Z,94.80
2019-06-20T02:45:42.973Z,95.20
2019-06-20T02:48:12.587Z,95.20
2019-06-20T02:50:41.942Z,94.90
2019-06-20T02:53:11.220Z,95.10
2019-06-20T02:55:40.820Z,94.90
2019-06-20T02:58:10.152Z,95.00
2019-06-20T03:00:45.190Z,95.30
2019-06-20T03:03:14.741Z,95.30
2019-06-20T03:05:44.750Z,95.80
2019-06-20T03:08:14.302Z,96.30
2019-06-20T03:10:43.677Z,96.60
2019-06-20T03:13:12.962Z,96.20
2019-06-20T03:15:42.323Z,96.30
2019-06-20T03:18:11.617Z,96.10
2019-06-20T03:20:40.920Z,96.60
2019-06-20T03:23:10.222Z,97.10
2019-06-20T03:25:39.814Z,96.70
2019-06-20T03:28:09.345Z,97.00
2019-06-20T03:30:38.658Z,97.40
2019-06-20T03:33:07.935Z,97.70
2019-06-20T03:35:37.234Z,97.80
2019-06-20T03:38:06.533Z,97.70
2019-06-20T03:40:35.866Z,98.00
2019-06-20T03:43:05.169Z,98.20
2019-06-20T03:45:35.822Z,98.20
2019-06-20T03:48:05.184Z,98.10
2019-06-20T03:50:34.655Z,98.10
2019-06-20T03:53:04.202Z,98.00
2019-06-20T03:55:34.009Z,97.60
2019-06-20T03:58:03.552Z,97.80
2019-06-20T04:00:34.592Z,97.20
2019-06-20T04:03:04.835Z,97.20
2019-06-20T04:05:34.567Z,97.20
2019-06-20T04:08:04.231Z,97.30
2019-06-20T04:10:34.661Z,96.90
2019-06-20T04:13:04.297Z,97.00
2019-06-20T04:15:33.678Z,96.80
2019-06-20T04:18:03.291Z,96.90
2019-06-20T04:20:32.574Z,97.00
2019-06-20T04:23:01.863Z,97.20
2019-06-20T04:25:31.642Z,97.10
2019-06-20T04:28:00.947Z,97.20
2019-06-20T04:30:30.232Z,97.20
2019-06-20T04:32:59.537Z,97.70
2019-06-20T04:35:29.109Z,97.50
2019-06-20T04:37:58.416Z,97.70
2019-06-20T04:40:27.709Z,97.50
2019-06-20T04:42:56.991Z,97.40
2019-06-20T04:45:35.427Z,97.90
2019-06-20T04:48:03.284Z,97.20
2019-06-20T04:50:32.633Z,97.10
2019-06-20T04:53:01.935Z,96.90
2019-06-20T04:55:31.229Z,97.30
2019-06-20T04:58:00.537Z,97.40
2019-06-20T05:00:29.819Z,97.30
2019-06-20T05:02:59.399Z,98.60
2019-06-20T05:05:28.691Z,99.10
2019-06-20T05:07:57.990Z,99.30
2019-06-20T05:10:27.311Z,99.30
2019-06-20T05:12:56.598Z,98.70
2019-06-20T05:15:25.896Z,98.90
2019-06-20T05:17:55.564Z,99.50
2019-06-20T05:20:25.135Z,99.20
2019-06-20T05:22:54.440Z,99.40
2019-06-20T05:25:23.721Z,99.90
2019-06-20T05:27:53.029Z,99.90
2019-06-20T05:30:22.385Z,99.90
2019-06-20T05:32:51.938Z,99.80
2019-06-20T05:35:21.234Z,99.60
2019-06-20T05:37:50.853Z,99.60
2019-06-20T05:40:20.659Z,99.50
2019-06-20T05:42:50.201Z,99.90
2019-06-20T05:45:19.971Z,99.10
2019-06-20T05:47:49.918Z,98.70
2019-06-20T05:50:19.599Z,98.70
2019-06-20T05:52:48.913Z,99.30
2019-06-20T05:55:18.303Z,98.50
2019-06-20T05:57:47.629Z,98.50
2019-06-20T06:00:17.358Z,98.10
2019-06-20T06:02:46.670Z,98.10
2019-06-20T06:05:16.509Z,97.90
2019-06-20T06:07:45.796Z,97.60
2019-06-20T06:10:15.479Z,97.60
2019-06-20T06:12:45.277Z,97.60
2019-06-20T06:15:15.866Z,97.30
2019-06-20T06:17:45.161Z,97.10
2019-06-20T06:20:15.798Z,96.90
2019-06-20T06:22:45.097Z,96.70
2019-06-20T06:25:15.748Z,96.90
2019-06-20T06:27:45.044Z,97.30
2019-06-20T06:30:14.778Z,97.20
2019-06-20T06:32:44.319Z,96.80
2019-06-20T06:35:13.859Z,96.70
2019-06-20T06:37:43.156Z,95.10
2019-06-20T06:40:13.978Z,94.90
2019-06-20T06:42:43.492Z,95.10
2019-06-20T06:45:13.340Z,94.70
2019-06-20T06:47:42.707Z,95.00
2019-06-20T06:50:14.408Z,95.20
2019-06-20T06:52:43.715Z,94.70
2019-06-20T06:55:13.498Z,94.90
2019-06-20T06:57:43.035Z,95.20
2019-06-20T07:00:14.220Z,94.50
2019-06-20T07:02:43.582Z,94.10
2019-06-20T07:05:13.323Z,93.50
2019-06-20T07:07:43.267Z,93.10
2019-06-20T07:10:12.824Z,93.00
2019-06-20T07:12:42.515Z,92.50
2019-06-20T07:15:12.532Z,91.70
2019-06-20T07:17:42.180Z,91.50
2019-06-20T07:20:15.062Z,91.10
2019-06-20T07:22:42.896Z,90.30
2019-06-20T07:25:12.549Z,89.90
2019-06-20T07:27:41.841Z,89.80
2019-06-20T07:30:12.333Z,89.10
2019-06-20T07:32:41.881Z,89.00
2019-06-20T07:35:11.365Z,88.70
2019-06-20T07:37:40.639Z,87.60
2019-06-20T07:40:10.410Z,86.80
2019-06-20T07:42:39.690Z,85.40
2019-06-20T07:45:10.118Z,86.60
2019-06-20T07:47:39.748Z,85.10
2019-06-20T07:50:10.128Z,85.50
2019-06-20T07:52:40.686Z,85.10
2019-06-20T07:55:10.401Z,85.70
2019-06-20T07:57:39.701Z,84.00
2019-06-20T08:00:13.109Z,83.30
2019-06-20T08:02:42.521Z,83.30
2019-06-20T08:05:12.622Z,84.00
2019-06-20T08:07:42.292Z,83.40
2019-06-20T08:10:15.676Z,82.80
2019-06-20T08:12:45.011Z,82.90
2019-06-20T08:15:16.119Z,82.30
2019-06-20T08:17:45.485Z,81.10
2019-06-20T08:20:16.356Z,79.60
2019-06-20T08:22:45.688Z,80.20
2019-06-20T08:25:15.574Z,78.60
2019-06-20T08:27:50.795Z,79.30
2019-06-20T08:30:28.614Z,79.50
2019-06-20T08:33:01.215Z,79.70
2019-06-20T08:35:31.441Z,79.40
2019-06-20T08:38:01.859Z,79.00
2019-06-20T08:40:36.060Z,78.50
2019-06-20T08:43:06.344Z,79.10
2019-06-20T08:45:38.242Z,78.70
2019-06-20T08:48:08.379Z,76.80
2019-06-20T08:50:37.713Z,76.80
2019-06-20T08:53:07.445Z,76.70
2019-06-20T08:55:36.999Z,76.90
2019-06-20T08:58:06.429Z,77.00
2019-06-20T09:00:37.665Z,76.30
2019-06-20T09:03:07.484Z,76.30
2019-06-20T09:05:37.220Z,76.00
2019-06-20T09:08:11.088Z,76.50
2019-06-20T09:10:40.165Z,75.70
2019-06-20T09:13:11.423Z,75.60
2019-06-20T09:15:41.356Z,75.70
2019-06-20T09:18:11.012Z,76.50
2019-06-20T09:20:40.560Z,75.80
2019-06-20T09:23:09.936Z,76.40
2019-06-20T09:25:39.220Z,75.70
2019-06-20T09:28:09.078Z,75.20
2019-06-20T09:30:38.787Z,75.10
2019-06-20T09:33:09.057Z,75.80
2019-06-20T09:35:38.334Z,76.00
2019-06-20T09:38:07.638Z,75.30
2019-06-20T09:40:37.159Z,76.10
2019-06-20T09:43:06.529Z,76.00
2019-06-20T09:45:37.412Z,74.70
2019-06-20T09:48:06.947Z,75.30
2019-06-20T09:50:36.227Z,74.70
2019-06-20T09:53:05.874Z,75.80
2019-06-20T09:55:35.225Z,75.60
2019-06-20T09:58:04.953Z,73.90
2019-06-20T10:00:35.876Z,74.20
2019-06-20T10:03:06.086Z,73.10
2019-06-20T10:05:35.658Z,72.50
2019-06-20T10:08:05.078Z,72.60
2019-06-20T10:10:35.526Z,73.20
2019-06-20T10:13:04.991Z,72.90
2019-06-20T10:15:37.190Z,73.60
2019-06-20T10:18:06.806Z,72.90
2019-06-20T10:20:38.970Z,73.80
2019-06-20T10:23:08.862Z,72.90
2019-06-20T10:25:38.488Z,73.10
2019-06-20T10:28:07.905Z,73.70
2019-06-20T10:30:37.517Z,73.40
2019-06-20T10:33:06.907Z,72.30
2019-06-20T10:35:36.180Z,72.70
2019-06-20T10:38:05.484Z,72.40
2019-06-20T10:40:34.755Z,72.70
2019-06-20T10:43:04.133Z,72.50
2019-06-20T10:45:34.860Z,72.20
2019-06-20T10:48:04.950Z,71.30
2019-06-20T10:50:34.536Z,71.50
2019-06-20T10:53:05.490Z,72.20
2019-06-20T10:55:34.850Z,70.60
2019-06-20T10:58:04.376Z,69.30
2019-06-20T11:00:33.650Z,69.50
2019-06-20T11:03:02.944Z,69.20
2019-06-20T11:05:32.244Z,68.30
2019-06-20T11:08:01.510Z,68.60
2019-06-20T11:10:31.186Z,67.80
2019-06-20T11:13:00.717Z,67.10
2019-06-20T11:15:30.586Z,68.10
2019-06-20T11:17:59.915Z,68.50
2019-06-20T11:20:29.295Z,69.20
2019-06-20T11:22:58.956Z,68.50
2019-06-20T11:25:28.643Z,68.20
2019-06-20T11:27:57.946Z,69.40
2019-06-20T11:30:44.578Z,68.90
2019-06-20T11:33:00.877Z,69.60
2019-06-20T11:35:30.165Z,70.60
2019-06-20T11:37:59.437Z,69.60
2019-06-20T11:40:28.874Z,70.30
2019-06-20T11:42:58.161Z,70.00
2019-06-20T11:45:27.509Z,70.40
2019-06-20T11:47:56.800Z,70.10
2019-06-20T11:50:26.077Z,69.50
2019-06-20T11:52:55.389Z,70.90
2019-06-20T11:55:24.883Z,71.40
2019-06-20T11:57:54.191Z,71.30
2019-06-20T12:00:23.650Z,71.80
2019-06-20T12:02:53.463Z,70.50
2019-06-20T12:05:23.925Z,71.20
2019-06-20T12:07:53.286Z,70.50
2019-06-20T12:10:22.745Z,71.10
2019-06-20T12:12:52.039Z,71.10
2019-06-20T12:15:21.587Z,69.60
2019-06-20T12:17:51.152Z,70.70
2019-06-20T12:20:22.594Z,70.80
2019-06-20T12:22:51.867Z,70.70
2019-06-20T12:25:21.816Z,70.40
2019-06-20T12:27:51.426Z,69.80
2019-06-20T12:30:21.419Z,69.70
2019-06-20T12:32:50.707Z,69.80
2019-06-20T12:35:20.027Z,69.20
2019-06-20T12:37:49.978Z,69.70
2019-06-20T12:40:20.418Z,69.60
2019-06-20T12:42:49.713Z,70.00
2019-06-20T12:45:20.028Z,71.10
2019-06-20T12:47:50.106Z,71.70
2019-06-20T12:50:19.864Z,70.90
2019-06-20T12:52:49.765Z,71.80
2019-06-20T12:55:19.453Z,72.30
2019-06-20T12:57:49.126Z,73.00
2019-06-20T13:00:20.454Z,74.00
2019-06-20T13:02:49.911Z,76.60
2019-06-20T13:05:20.155Z,76.10
2019-06-20T13:07:50.347Z,74.70
2019-06-20T13:10:20.550Z,74.20
2019-06-20T13:12:51.510Z,73.50
2019-06-20T13:15:21.141Z,73.20
2019-06-20T13:17:50.468Z,73.70
2019-06-20T13:20:21.179Z,73.50
2019-06-20T13:22:50.772Z,73.50
2019-06-20T13:25:20.382Z,73.50
2019-06-20T13:27:50.617Z,73.80
2019-06-20T13:30:22.156Z,79.10
2019-06-20T13:32:51.528Z,79.20
2019-06-20T13:35:21.384Z,83.50
2019-06-20T13:37:50.994Z,83.90
2019-06-20T13:40:20.902Z,85.50
2019-06-20T13:42:50.517Z,87.60
2019-06-20T13:45:24.515Z,87.50
2019-06-20T13:47:54.701Z,89.70
2019-06-20T13:50:45.367Z,91.40
2019-06-20T13:53:14.796Z,92.20
2019-06-20T13:55:44.206Z,92.20
2019-06-20T13:58:14.877Z,92.30
2019-06-20T14:00:45.473Z,92.00
2019-06-20T14:03:15.184Z,93.80
2019-06-20T14:05:45.398Z,96.30
2019-06-20T14:08:14.798Z,96.80
2019-06-20T14:10:44.839Z,97.70
2019-06-20T14:13:19.344Z,98.90
2019-06-20T14:15:46.232Z,97.20
2019-06-20T14:18:15.840Z,99.00
2019-06-20T14:20:46.595Z,99.30
2019-06-20T14:23:16.018Z,99.40
2019-06-20T14:25:46.331Z,99.90
2019-06-20T14:28:15.785Z,98.70
2019-06-20T14:30:46.500Z,98.10
2019-06-20T14:33:16.078Z,95.20
2019-06-20T14:35:47.166Z,97.00
2019-06-20T14:38:16.666Z,96.10
2019-06-20T14:40:46.028Z,95.80
2019-06-20T14:43:15.924Z,96.30
2019-06-20T14:45:46.758Z,96.10
2019-06-20T14:48:16.461Z,95.30
2019-06-20T14:50:47.606Z,96.20
2019-06-20T14:53:17.067Z,94.20
2019-06-20T14:55:47.653Z,95.50
2019-06-20T14:58:17.456Z,94.60
2019-06-20T15:00:48.164Z,96.30
2019-06-20T15:03:18.540Z,96.00
2019-06-20T15:05:48.355Z,97.70
2019-06-20T15:08:17.966Z,96.30
2019-06-20T15:10:48.498Z,96.60
2019-06-20T15:13:18.407Z,95.10
2019-06-20T15:15:49.416Z,95.20
2019-06-20T15:18:19.007Z,96.10
2019-06-20T15:20:50.180Z,96.20
2019-06-20T15:23:19.636Z,95.60
2019-06-20T15:25:50.287Z,96.60
2019-06-20T15:28:19.835Z,96.80
2019-06-20T15:30:50.705Z,96.10
2019-06-20T15:33:20.392Z,98.00
2019-06-20T15:35:51.210Z,98.70
2019-06-20T15:38:21.055Z,98.60
2019-06-20T15:40:51.522Z,98.30
2019-06-20T15:43:21.043Z,98.30
2019-06-20T15:45:51.980Z,95.30
2019-06-20T15:48:21.697Z,95.60
2019-06-20T15:50:51.309Z,96.60
2019-06-20T15:53:20.605Z,95.70
2019-06-20T15:55:50.216Z,97.60
2019-06-20T15:58:19.507Z,96.60
2019-06-20T16:00:48.802Z,96.50
2019-06-20T16:03:18.324Z,97.60
2019-06-20T16:05:47.941Z,97.60
2019-06-20T16:08:17.263Z,95.30
2019-06-20T16:10:46.621Z,96.20
2019-06-20T16:13:15.930Z,95.80
2019-06-20T16:15:45.291Z,98.40
2019-06-20T16:18:14.587Z,94.70
2019-06-20T16:20:43.947Z,94.00
2019-06-20T16:23:13.344Z,94.00
2019-06-20T16:25:42.671Z,93.20
2019-06-20T16:28:12.004Z,91.40
2019-06-20T16:30:41.568Z,92.10
2019-06-20T16:33:24.267Z,91.80
2019-06-20T16:35:42.111Z,91.00
2019-06-20T16:38:11.721Z,89.10
2019-06-20T16:40:46.308Z,91.20
2019-06-20T16:43:16.845Z,88.80
2019-06-20T16:45:46.479Z,88.50
2019-06-20T16:48:15.800Z,90.50
2019-06-20T16:50:45.406Z,91.60
2019-06-20T16:53:14.760Z,90.70
2019-06-20T16:55:44.051Z,91.70
2019-06-20T16:58:14.321Z,93.10
2019-06-20T17:00:43.748Z,90.60
2019-06-20T17:03:13.601Z,91.10
2019-06-20T17:05:44.136Z,90.80
2019-06-20T17:08:13.419Z,87.00
2019-06-20T17:10:42.717Z,87.20
2019-06-20T17:13:12.035Z,87.50
2019-06-20T17:15:41.388Z,89.80
2019-06-20T17:18:10.738Z,89.10
2019-06-20T17:20:40.197Z,87.20
2019-06-20T17:23:09.489Z,88.10
2019-06-20T17:25:38.799Z,88.00
2019-06-20T17:28:08.162Z,88.10
2019-06-20T17:30:37.681Z,88.70
2019-06-20T17:33:06.980Z,88.40
2019-06-20T17:35:36.285Z,86.80
2019-06-20T17:38:05.577Z,87.10
2019-06-20T17:40:35.103Z,87.00
2019-06-20T17:43:04.636Z,86.70
2019-06-20T17:45:34.105Z,84.90
2019-06-20T17:48:03.406Z,84.00
2019-06-20T17:50:33.026Z,84.90
2019-06-20T17:53:03.349Z,85.40
2019-06-20T17:55:32.959Z,84.50
2019-06-20T17:58:02.254Z,83.10
2019-06-20T18:00:32.772Z,83.50
2019-06-20T18:03:02.075Z,83.90
2019-06-20T18:05:31.602Z,85.70
2019-06-20T18:08:14.123Z,84.40
2019-06-20T18:10:32.169Z,84.20
2019-06-20T18:13:01.749Z,84.10
2019-06-20T18:15:33.858Z,84.10
2019-06-20T18:18:02.308Z,85.10
2019-06-20T18:20:31.591Z,85.60
2019-06-20T18:23:01.198Z,85.70
2019-06-20T18:25:31.759Z,86.40
2019-06-20T18:28:01.433Z,85.90
2019-06-20T18:30:33.802Z,85.10
2019-06-20T18:33:03.418Z,88.50
2019-06-20T18:35:32.697Z,89.60
2019-06-20T18:38:01.988Z,89.60
2019-06-20T18:40:31.341Z,89.40
2019-06-20T18:43:00.915Z,90.50
2019-06-20T18:45:30.456Z,91.70
2019-06-20T18:47:59.751Z,91.70
2019-06-20T18:50:29.064Z,91.50
2019-06-20T18:52:58.419Z,92.90
2019-06-20T18:55:28.083Z,93.20
2019-06-20T18:57:57.611Z,92.90
2019-06-20T19:00:34.496Z,92.20
2019-06-20T19:02:58.710Z,91.90
2019-06-20T19:05:28.010Z,92.60
2019-06-20T19:07:57.300Z,93.70
2019-06-20T19:10:26.732Z,94.00
2019-06-20T19:12:56.326Z,93.10
2019-06-20T19:15:26.099Z,93.00
2019-06-20T19:17:55.413Z,92.90
2019-06-20T19:20:24.960Z,93.70
2019-06-20T19:22:54.286Z,93.80
2019-06-20T19:25:23.585Z,94.30
2019-06-20T19:27:53.203Z,94.90
2019-06-20T19:30:25.631Z,95.50
2019-06-20T19:32:55.260Z,95.20
2019-06-20T19:35:24.767Z,95.80
2019-06-20T19:37:54.057Z,94.50
2019-06-20T19:40:26.451Z,94.70
2019-06-20T19:42:56.054Z,93.20
2019-06-20T19:45:25.347Z,92.30
2019-06-20T19:47:54.931Z,91.50
2019-06-20T19:50:24.406Z,93.00
2019-06-20T19:52:53.736Z,92.80
2019-06-20T19:55:23.019Z,92.20
2019-06-20T19:57:52.314Z,91.40
2019-06-20T20:00:21.877Z,91.60
2019-06-20T20:02:51.171Z,92.50
2019-06-20T20:05:21.529Z,91.90
2019-06-20T20:07:50.829Z,92.90
2019-06-20T20:10:45.987Z,91.50
2019-06-20T20:13:15.994Z,91.00
2019-06-20T20:15:46.390Z,91.20
2019-06-20T20:18:15.854Z,91.30
2019-06-20T20:20:48.159Z,92.10
2019-06-20T20:23:18.873Z,91.80
2019-06-20T20:25:48.258Z,92.30
2019-06-20T20:28:17.539Z,91.50
2019-06-20T20:30:46.856Z,91.40
2019-06-20T20:33:16.457Z,91.50
2019-06-20T20:35:46.536Z,91.20
2019-06-20T20:38:15.802Z,91.80
2019-06-20T20:40:46.408Z,91.60
2019-06-20T20:43:15.703Z,92.20
2019-06-20T20:45:45.057Z,92.50
2019-06-20T20:48:15.428Z,93.10
2019-06-20T20:50:45.056Z,93.30
2019-06-20T20:53:14.342Z,93.10
2019-06-20T20:55:43.642Z,93.10
2019-06-20T20:58:13.023Z,93.30
2019-06-20T21:01:00.067Z,94.00
2019-06-20T21:03:29.397Z,94.10
2019-06-20T21:05:59.015Z,94.70
2019-06-20T21:08:28.521Z,96.00
2019-06-20T21:10:58.102Z,96.50
2019-06-20T21:13:27.631Z,97.10
2019-06-20T21:15:57.179Z,97.80
2019-06-20T21:18:26.454Z,97.70
2019-06-20T21:20:55.752Z,97.60
2019-06-20T21:23:25.308Z,98.40
2019-06-20T21:25:54.613Z,98.20
2019-06-20T21:28:23.900Z,98.00
2019-06-20T21:30:53.522Z,97.70
2019-06-20T21:33:22.872Z,98.50
2019-06-20T21:36:07.357Z,99.00
2019-06-20T21:38:24.301Z,99.60
2019-06-20T21:40:53.587Z,99.40
2019-06-20T21:43:22.918Z,99.40
2019-06-20T21:45:52.446Z,99.40
2019-06-20T21:48:21.741Z,99.30
2019-06-20T21:50:51.315Z,99.30
2019-06-20T21:53:20.639Z,99.90
2019-06-20T21:55:50.006Z,98.90
2019-06-20T21:58:19.306Z,99.20
2019-06-20T22:00:52.499Z,99.90
2019-06-20T22:03:23.429Z,99.90
2019-06-20T22:05:52.753Z,99.90
2019-06-20T22:08:22.048Z,99.90
2019-06-20T22:10:51.654Z,99.90
2019-06-20T22:13:21.265Z,99.90
2019-06-20T22:15:50.874Z,99.90
2019-06-20T22:18:20.379Z,99.90
2019-06-20T22:20:49.819Z,99.60
2019-06-20T22:23:19.114Z,99.20
2019-06-20T22:25:48.686Z,99.20
2019-06-20T22:28:17.998Z,99.40
2019-06-20T22:30:50.394Z,99.70
2019-06-20T22:33:19.923Z,99.90
2019-06-20T22:35:49.730Z,99.40
2019-06-20T22:38:19.037Z,99.30
2019-06-20T22:40:48.398Z,98.50
2019-06-20T22:43:18.023Z,98.70
2019-06-20T22:45:47.422Z,98.70
2019-06-20T22:48:16.785Z,98.70
2019-06-20T22:50:46.942Z,98.50
2019-06-20T22:53:16.305Z,98.90
2019-06-20T22:55:45.613Z,99.60
2019-06-20T22:58:14.981Z,99.50
2019-06-20T23:00:44.636Z,99.10
2019-06-20T23:03:13.930Z,98.50
2019-06-20T23:05:43.349Z,98.40
2019-06-20T23:08:12.774Z,98.40
2019-06-20T23:10:42.082Z,98.70
2019-06-20T23:13:11.369Z,99.10
2019-06-20T23:15:41.012Z,99.80
2019-06-20T23:18:10.674Z,99.90
2019-06-20T23:20:40.404Z,99.90
2019-06-20T23:23:09.998Z,99.90
2019-06-20T23:25:40.935Z,99.80
2019-06-20T23:28:10.239Z,99.70
2019-06-20T23:30:39.530Z,99.90
2019-06-20T23:33:09.061Z,99.90
2019-06-20T23:35:38.341Z,99.90
2019-06-20T23:38:07.712Z,99.90
2019-06-20T23:40:37.003Z,99.90
2019-06-20T23:43:06.581Z,99.90
2019-06-20T23:45:36.148Z,99.90
2019-06-20T23:48:05.439Z,99.80
2019-06-20T23:50:34.740Z,99.90
2019-06-20T23:53:14.792Z,99.90
2019-06-20T23:55:44.091Z,99.70
2019-06-20T23:58:13.393Z,99.90
